createdAt,value
2022-12-14T00:01:16.255Z,27.17
2022-12-14T00:03:42.818Z,26.97
2022-12-14T00:06:29.125Z,27.23
2022-12-14T00:08:59.807Z,27.12
2022-12-14T00:11:26.337Z,26.99
2022-12-14T00:13:57.187Z,27.31
2022-12-14T00:16:24.086Z,27.16
2022-12-14T00:18:52.444Z,27.13
2022-12-14T00:21:19.005Z,27.10
2022-12-14T00:23:46.169Z,26.95
2022-12-14T00:26:27.269Z,27.15
2022-12-14T00:28:54.829Z,27.06
2022-12-14T00:31:21.855Z,26.92
2022-12-14T00:33:48.571Z,26.97
2022-12-14T00:36:15.062Z,26.93
2022-12-14T00:38:41.549Z,27.03
2022-12-14T00:41:08.101Z,27.08
2022-12-14T00:43:34.860Z,26.96
2022-12-14T00:46:01.373Z,26.88
2022-12-14T00:48:28.125Z,26.92
2022-12-14T00:50:55.177Z,27.07
2022-12-14T00:53:21.814Z,27.27
2022-12-14T00:55:49.677Z,27.01
2022-12-14T00:58:17.660Z,27.00
2022-12-14T01:00:47.243Z,26.99
2022-12-14T01:03:13.864Z,27.10
2022-12-14T01:05:40.609Z,26.94
2022-12-14T01:08:07.117Z,27.05
2022-12-14T01:10:33.678Z,27.04
2022-12-14T01:13:00.141Z,27.14
2022-12-14T01:15:26.595Z,26.96
2022-12-14T01:17:53.069Z,27.00
2022-12-14T01:20:19.619Z,27.07
2022-12-14T01:22:46.146Z,26.92
2022-12-14T01:25:12.729Z,26.99
2022-12-14T01:27:39.175Z,27.05
2022-12-14T01:30:05.990Z,26.99
2022-12-14T01:32:32.462Z,27.08
2022-12-14T01:34:58.942Z,27.12
2022-12-14T01:37:25.415Z,27.12
2022-12-14T01:39:51.883Z,26.96
2022-12-14T01:42:18.340Z,27.00
2022-12-14T01:44:44.678Z,27.12
2022-12-14T01:47:50.223Z,26.96
2022-12-14T01:50:26.717Z,26.97
2022-12-14T01:52:54.968Z,26.93
2022-12-14T01:55:27.529Z,26.85
2022-12-14T01:57:59.226Z,27.09
2022-12-14T02:00:26.094Z,26.83
2022-12-14T02:03:10.447Z,26.99
2022-12-14T02:05:37.506Z,26.86
2022-12-14T02:08:03.973Z,27.10
2022-12-14T02:10:30.466Z,26.93
2022-12-14T02:13:10.151Z,26.89
2022-12-14T02:15:37.181Z,26.96
2022-12-14T02:18:03.667Z,26.88
2022-12-14T02:20:35.773Z,26.85
2022-12-14T02:23:17.682Z,26.93
2022-12-14T02:25:59.297Z,27.16
2022-12-14T02:28:44.480Z,27.00
2022-12-14T02:31:33.281Z,26.91
2022-12-14T02:34:11.236Z,27.07
2022-12-14T02:36:42.213Z,27.07
2022-12-14T02:39:34.580Z,26.96
2022-12-14T02:42:14.710Z,27.18
2022-12-14T02:44:55.239Z,27.19
2022-12-14T02:47:28.043Z,27.03
2022-12-14T02:50:14.646Z,26.99
2022-12-14T02:53:38.675Z,27.20
2022-12-14T02:56:07.523Z,27.23
2022-12-14T02:58:41.426Z,27.20
2022-12-14T03:01:12.725Z,26.99
2022-12-14T03:03:39.449Z,26.96
2022-12-14T03:06:25.860Z,27.11
2022-12-14T03:09:03.536Z,26.89
2022-12-14T03:11:50.060Z,26.80
2022-12-14T03:14:23.432Z,26.96
2022-12-14T03:16:50.444Z,27.05
2022-12-14T03:19:22.924Z,26.99
2022-12-14T03:21:58.502Z,26.88
2022-12-14T03:24:37.461Z,26.96
2022-12-14T03:27:11.657Z,26.74
2022-12-14T03:29:40.526Z,27.00
2022-12-14T03:32:18.942Z,26.88
2022-12-14T03:34:51.508Z,27.02
2022-12-14T03:37:22.349Z,26.96
2022-12-14T03:39:48.809Z,26.98
2022-12-14T03:42:22.782Z,27.10
2022-12-14T03:44:57.142Z,27.11
2022-12-14T03:47:48.503Z,27.12
2022-12-14T03:50:21.353Z,27.09
2022-12-14T03:52:59.055Z,27.02
2022-12-14T03:55:53.502Z,27.11
2022-12-14T03:58:36.613Z,27.20
2022-12-14T04:01:17.487Z,27.22
2022-12-14T04:03:52.735Z,27.17
2022-12-14T04:06:27.529Z,27.30
2022-12-14T04:09:03.162Z,27.04
2022-12-14T04:11:52.271Z,27.30
2022-12-14T04:14:41.056Z,27.22
2022-12-14T04:17:28.629Z,26.96
2022-12-14T04:19:59.719Z,27.16
2022-12-14T04:22:26.706Z,27.10
2022-12-14T04:25:23.045Z,27.22
2022-12-14T04:28:01.982Z,27.08
2022-12-14T04:30:28.661Z,27.09
2022-12-14T04:33:40.190Z,27.20
2022-12-14T04:36:07.216Z,27.11
2022-12-14T04:38:34.893Z,27.20
2022-12-14T04:41:04.078Z,27.11
2022-12-14T04:43:31.937Z,27.06
2022-12-14T04:46:02.054Z,27.00
2022-12-14T04:48:45.950Z,27.06
2022-12-14T04:51:13.647Z,27.01
2022-12-14T04:53:40.146Z,27.09
2022-12-14T04:56:10.435Z,27.05
2022-12-14T04:58:36.890Z,27.02
2022-12-14T05:01:30.861Z,26.99
2022-12-14T05:04:19.070Z,27.22
2022-12-14T05:07:11.110Z,27.16
2022-12-14T05:09:51.136Z,27.25
2022-12-14T05:12:29.585Z,27.15
2022-12-14T05:15:07.774Z,27.12
2022-12-14T05:17:36.309Z,27.35
2022-12-14T05:20:02.806Z,27.20
2022-12-14T05:22:29.249Z,27.13
2022-12-14T05:24:55.743Z,27.20
2022-12-14T05:27:22.671Z,27.15
2022-12-14T05:29:49.151Z,27.19
2022-12-14T05:32:15.597Z,27.02
2022-12-14T05:34:42.134Z,27.04
2022-12-14T05:37:14.586Z,27.25
2022-12-14T05:39:44.366Z,27.00
2022-12-14T05:42:10.819Z,27.15
2022-12-14T05:44:37.312Z,27.15
2022-12-14T05:47:03.798Z,27.02
2022-12-14T05:49:30.338Z,27.23
2022-12-14T05:51:56.785Z,27.23
2022-12-14T05:54:23.247Z,27.30
2022-12-14T05:56:49.717Z,27.44
2022-12-14T05:59:16.837Z,27.23
2022-12-14T06:01:43.681Z,27.33
2022-12-14T06:04:11.835Z,27.59
2022-12-14T06:06:38.312Z,27.39
2022-12-14T06:09:08.942Z,27.50
2022-12-14T06:11:39.430Z,27.20
2022-12-14T06:14:06.243Z,27.29
2022-12-14T06:16:32.708Z,27.41
2022-12-14T06:18:59.929Z,27.13
2022-12-14T06:21:34.234Z,27.22
2022-12-14T06:24:00.679Z,27.42
2022-12-14T06:26:27.452Z,27.39
2022-12-14T06:28:54.694Z,27.31
2022-12-14T06:31:29.328Z,27.22
2022-12-14T06:33:59.109Z,27.44
2022-12-14T06:36:27.079Z,27.39
2022-12-14T06:38:57.392Z,27.20
2022-12-14T06:41:24.208Z,27.17
2022-12-14T06:43:51.148Z,27.05
2022-12-14T06:46:19.398Z,27.26
2022-12-14T06:48:53.061Z,27.24
2022-12-14T06:51:20.094Z,27.17
2022-12-14T06:53:46.672Z,27.28
2022-12-14T06:56:14.850Z,27.26
2022-12-14T06:58:41.387Z,27.33
2022-12-14T07:01:19.162Z,27.35
2022-12-14T07:03:55.705Z,27.56
2022-12-14T07:06:22.810Z,27.25
2022-12-14T07:08:49.375Z,27.18
2022-12-14T07:11:16.093Z,26.91
2022-12-14T07:13:42.676Z,27.08
2022-12-14T07:16:13.956Z,26.71
2022-12-14T07:18:40.445Z,26.67
2022-12-14T07:21:11.624Z,26.42
2022-12-14T07:23:38.591Z,26.65
2022-12-14T07:26:06.193Z,26.35
2022-12-14T07:28:32.727Z,26.45
2022-12-14T07:30:59.451Z,26.38
2022-12-14T07:33:26.448Z,26.39
2022-12-14T07:36:00.725Z,26.42
2022-12-14T07:38:27.032Z,26.54
2022-12-14T07:40:53.980Z,26.56
2022-12-14T07:43:20.454Z,26.71
2022-12-14T07:45:47.093Z,26.48
2022-12-14T07:48:13.549Z,26.28
2022-12-14T07:50:40.028Z,26.69
2022-12-14T07:53:07.013Z,26.31
2022-12-14T07:55:35.111Z,26.59
2022-12-14T07:58:02.176Z,26.62
2022-12-14T08:00:28.637Z,26.64
2022-12-14T08:02:55.356Z,26.93
2022-12-14T08:05:21.812Z,26.81
2022-12-14T08:07:48.251Z,26.57
2022-12-14T08:10:14.727Z,26.52
2022-12-14T08:12:41.167Z,26.67
2022-12-14T08:15:08.434Z,26.67
2022-12-14T08:17:34.891Z,26.49
2022-12-14T08:20:01.349Z,26.29
2022-12-14T08:22:27.844Z,26.48
2022-12-14T08:24:54.293Z,26.10
2022-12-14T08:27:21.798Z,26.18
2022-12-14T08:29:48.274Z,26.19
2022-12-14T08:32:14.724Z,26.32
2022-12-14T08:34:41.210Z,25.82
2022-12-14T08:37:07.663Z,26.01
2022-12-14T08:39:34.138Z,25.94
2022-12-14T08:42:00.636Z,26.07
2022-12-14T08:44:27.130Z,26.38
2022-12-14T08:46:53.639Z,25.77
2022-12-14T08:49:20.450Z,25.96
2022-12-14T08:51:46.990Z,25.97
2022-12-14T08:54:13.489Z,26.20
2022-12-14T08:56:40.154Z,26.44
2022-12-14T08:59:06.609Z,26.13
2022-12-14T09:01:34.767Z,26.11
2022-12-14T09:04:03.053Z,26.26
2022-12-14T09:06:29.520Z,26.23
2022-12-14T09:08:55.984Z,26.09
2022-12-14T09:11:22.624Z,26.22
2022-12-14T09:13:49.145Z,26.25
2022-12-14T09:16:17.686Z,26.42
2022-12-14T09:18:44.862Z,26.12
2022-12-14T09:21:11.343Z,25.92
2022-12-14T09:23:39.850Z,26.17
2022-12-14T09:26:15.425Z,26.09
2022-12-14T09:28:42.741Z,26.11
2022-12-14T09:31:13.608Z,25.96
2022-12-14T09:33:40.618Z,25.89
2022-12-14T09:36:08.673Z,26.09
2022-12-14T09:38:36.127Z,26.04
2022-12-14T09:41:07.822Z,25.95
2022-12-14T09:43:39.216Z,26.30
2022-12-14T09:46:24.319Z,26.00
2022-12-14T09:48:52.012Z,26.21
2022-12-14T09:51:20.097Z,26.16
2022-12-14T09:53:47.830Z,26.03
2022-12-14T09:56:17.313Z,26.00
2022-12-14T09:58:55.888Z,26.06
2022-12-14T10:01:22.473Z,26.02
2022-12-14T10:03:55.261Z,26.17
2022-12-14T10:06:35.371Z,26.04
2022-12-14T10:09:33.301Z,26.03
2022-12-14T10:12:34.348Z,26.09
2022-12-14T10:15:07.514Z,26.12
2022-12-14T10:17:44.667Z,26.03
2022-12-14T10:20:24.922Z,26.09
2022-12-14T10:22:52.627Z,25.85
2022-12-14T10:25:27.388Z,26.05
2022-12-14T10:28:15.758Z,25.70
2022-12-14T10:30:42.884Z,25.83
2022-12-14T10:33:22.215Z,25.66
2022-12-14T10:35:52.828Z,25.75
2022-12-14T10:38:26.499Z,25.50
2022-12-14T10:41:07.298Z,25.77
2022-12-14T10:43:49.874Z,25.03
2022-12-14T10:46:35.887Z,25.52
2022-12-14T10:49:08.998Z,25.53
2022-12-14T10:51:43.998Z,25.15
2022-12-14T10:54:22.566Z,25.22
2022-12-14T10:56:50.009Z,25.00
2022-12-14T10:59:39.852Z,24.51
2022-12-14T11:02:19.093Z,24.45
2022-12-14T11:04:56.058Z,24.39
2022-12-14T11:07:24.756Z,24.09
2022-12-14T11:09:51.314Z,23.87
2022-12-14T11:12:19.491Z,23.79
2022-12-14T11:15:03.049Z,23.75
2022-12-14T11:17:30.591Z,23.97
2022-12-14T11:20:14.957Z,23.92
2022-12-14T11:22:52.672Z,24.08
2022-12-14T11:25:31.258Z,24.17
2022-12-14T11:28:03.855Z,24.22
2022-12-14T11:30:30.479Z,24.19
2022-12-14T11:32:56.965Z,24.19
2022-12-14T11:35:23.422Z,24.35
2022-12-14T11:37:50.052Z,24.18
2022-12-14T11:40:36.040Z,24.54
2022-12-14T11:43:03.773Z,24.63
2022-12-14T11:45:32.247Z,24.59
2022-12-14T11:48:14.258Z,24.74
2022-12-14T11:50:44.550Z,24.71
2022-12-14T11:53:12.681Z,24.79
2022-12-14T11:55:41.028Z,24.70
2022-12-14T11:58:17.185Z,24.60
2022-12-14T12:00:47.386Z,24.85
2022-12-14T12:03:27.997Z,25.07
2022-12-14T12:05:54.535Z,24.87
2022-12-14T12:08:25.601Z,24.93
2022-12-14T12:11:03.116Z,24.73
2022-12-14T12:13:37.001Z,24.98
2022-12-14T12:16:14.804Z,25.11
2022-12-14T12:18:46.620Z,25.00
2022-12-14T12:21:22.454Z,24.77
2022-12-14T12:23:56.127Z,25.04
2022-12-14T12:26:25.560Z,24.76
2022-12-14T12:29:01.334Z,24.96
2022-12-14T12:31:38.492Z,25.02
2022-12-14T12:34:11.905Z,25.04
2022-12-14T12:36:39.614Z,25.06
2022-12-14T12:39:17.032Z,25.13
2022-12-14T12:42:06.727Z,25.12
2022-12-14T12:44:56.333Z,25.32
2022-12-14T12:47:46.647Z,25.16
2022-12-14T12:50:17.296Z,25.35
2022-12-14T12:53:05.172Z,25.44
2022-12-14T12:55:36.802Z,25.38
2022-12-14T12:58:03.387Z,25.57
2022-12-14T13:00:30.484Z,25.63
2022-12-14T13:03:09.543Z,25.69
2022-12-14T13:05:51.375Z,25.66
2022-12-14T13:08:25.276Z,25.86
2022-12-14T13:13:38.434Z,25.58
2022-12-14T13:16:15.571Z,26.09
2022-12-14T13:19:13.220Z,25.80
2022-12-14T13:21:35.640Z,25.83
2022-12-14T13:24:02.662Z,25.84
2022-12-14T13:26:59.137Z,25.87
2022-12-14T13:29:47.400Z,26.07
2022-12-14T13:32:47.423Z,25.98
2022-12-14T13:35:36.625Z,25.55
2022-12-14T13:38:33.190Z,26.04
2022-12-14T13:41:22.126Z,25.90
2022-12-14T13:44:10.756Z,26.10
2022-12-14T13:46:37.336Z,26.12
2022-12-14T13:49:07.065Z,26.07
2022-12-14T13:51:38.052Z,26.04
2022-12-14T13:54:06.793Z,25.99
2022-12-14T13:56:35.158Z,26.24
2022-12-14T13:59:03.638Z,26.29
2022-12-14T14:01:48.291Z,26.17
2022-12-14T14:04:18.408Z,26.18
2022-12-14T14:06:48.697Z,26.35
2022-12-14T14:09:33.441Z,26.24
2022-12-14T14:12:21.721Z,26.25
2022-12-14T14:14:52.085Z,26.27
2022-12-14T14:17:25.494Z,26.16
2022-12-14T14:19:56.027Z,26.23
2022-12-14T14:22:25.714Z,26.35
2022-12-14T14:25:12.873Z,26.38
2022-12-14T14:27:50.254Z,26.54
2022-12-14T14:30:52.234Z,26.25
2022-12-14T14:33:47.117Z,26.16
2022-12-14T14:36:35.895Z,26.44
2022-12-14T14:39:24.540Z,26.30
2022-12-14T14:41:53.441Z,26.23
2022-12-14T14:44:21.590Z,26.15
2022-12-14T14:46:48.504Z,26.49
2022-12-14T14:49:36.145Z,26.39
2022-12-14T14:52:39.789Z,26.37
2022-12-14T14:55:53.147Z,26.36
2022-12-14T14:58:25.974Z,26.37
2022-12-14T15:01:17.737Z,26.07
2022-12-14T15:04:00.671Z,26.01
2022-12-14T15:06:31.355Z,26.02
2022-12-14T15:09:09.618Z,26.06
2022-12-14T15:11:46.332Z,26.17
2022-12-14T15:14:15.128Z,26.36
2022-12-14T15:16:43.764Z,26.09
2022-12-14T15:19:33.476Z,26.06
2022-12-14T15:22:02.697Z,26.14
2022-12-14T15:24:29.157Z,26.23
2022-12-14T15:26:55.671Z,26.36
2022-12-14T15:29:27.753Z,26.18
2022-12-14T15:31:59.659Z,26.24
2022-12-14T15:34:26.633Z,26.25
2022-12-14T15:36:53.142Z,26.22
2022-12-14T15:39:33.585Z,26.20
2022-12-14T15:42:02.763Z,26.23
2022-12-14T15:44:29.286Z,26.23
2022-12-14T15:46:55.816Z,26.18
2022-12-14T15:49:22.962Z,26.13
2022-12-14T15:51:49.424Z,26.16
2022-12-14T15:54:18.683Z,25.73
2022-12-14T15:56:46.326Z,25.42
2022-12-14T15:59:17.799Z,25.01
2022-12-14T16:01:53.663Z,24.56
2022-12-14T16:04:22.819Z,24.19
2022-12-14T16:06:56.960Z,24.21
2022-12-14T16:09:28.563Z,24.25
2022-12-14T16:11:56.371Z,24.16
2022-12-14T16:14:29.156Z,24.17
2022-12-14T16:16:55.952Z,24.22
2022-12-14T16:19:28.776Z,24.51
2022-12-14T16:22:10.093Z,24.27
2022-12-14T16:24:37.831Z,24.61
2022-12-14T16:27:04.955Z,24.41
2022-12-14T16:29:32.628Z,24.24
2022-12-14T16:32:03.366Z,24.36
2022-12-14T16:34:29.946Z,24.58
2022-12-14T16:39:50.269Z,24.40
2022-12-14T16:42:24.859Z,24.47
2022-12-14T16:44:53.928Z,24.55
2022-12-14T16:47:35.575Z,24.37
2022-12-14T16:50:02.089Z,24.37
2022-12-14T16:52:33.212Z,24.32
2022-12-14T16:55:08.683Z,24.42
2022-12-14T16:57:35.615Z,24.65
2022-12-14T17:00:04.046Z,24.52
2022-12-14T17:02:33.343Z,24.84
2022-12-14T17:05:03.294Z,24.74
2022-12-14T17:07:30.555Z,24.85
2022-12-14T17:09:57.107Z,24.70
2022-12-14T17:12:24.502Z,25.06
2022-12-14T17:14:51.167Z,24.87
2022-12-14T17:17:37.857Z,25.11
2022-12-14T17:20:08.001Z,25.37
2022-12-14T17:22:37.046Z,25.45
2022-12-14T17:25:03.608Z,25.73
2022-12-14T17:27:30.425Z,25.83
2022-12-14T17:29:57.403Z,25.68
2022-12-14T17:32:25.853Z,25.64
2022-12-14T17:34:52.326Z,25.65
2022-12-14T17:37:20.736Z,25.60
2022-12-14T17:39:47.479Z,25.87
2022-12-14T17:42:15.548Z,25.93
2022-12-14T17:44:42.807Z,25.98
2022-12-14T17:47:15.653Z,26.03
2022-12-14T17:49:42.971Z,25.76
2022-12-14T17:52:17.938Z,25.87
2022-12-14T17:54:44.451Z,25.38
2022-12-14T17:57:18.327Z,25.59
2022-12-14T17:59:47.637Z,25.76
2022-12-14T18:02:34.825Z,25.61
2022-12-14T18:05:01.443Z,25.92
2022-12-14T18:07:27.938Z,25.52
2022-12-14T18:09:54.491Z,25.77
2022-12-14T18:12:23.542Z,25.77
2022-12-14T18:14:50.747Z,25.77
2022-12-14T18:17:18.665Z,25.68
2022-12-14T18:19:45.189Z,25.67
2022-12-14T18:22:14.605Z,25.72
2022-12-14T18:24:41.187Z,25.74
2022-12-14T18:27:07.648Z,25.70
2022-12-14T18:29:34.108Z,25.77
2022-12-14T18:32:00.705Z,25.89
2022-12-14T18:34:27.288Z,25.78
2022-12-14T18:36:56.267Z,25.71
2022-12-14T18:39:22.730Z,25.78
2022-12-14T18:41:49.202Z,25.60
2022-12-14T18:44:16.459Z,25.74
2022-12-14T18:46:42.974Z,25.75
2022-12-14T18:49:16.093Z,25.94
2022-12-14T18:51:42.591Z,25.77
2022-12-14T18:54:09.313Z,25.97
2022-12-14T18:56:35.774Z,26.11
2022-12-14T18:59:02.273Z,26.14
2022-12-14T19:01:28.902Z,25.89
2022-12-14T19:03:55.476Z,25.91
2022-12-14T19:09:09.316Z,26.06
2022-12-14T19:11:38.716Z,25.99
2022-12-14T19:14:05.210Z,26.22
2022-12-14T19:16:31.791Z,26.12
2022-12-14T19:18:58.435Z,25.81
2022-12-14T19:21:29.332Z,26.06
2022-12-14T19:23:55.985Z,25.56
2022-12-14T19:26:22.665Z,24.90
2022-12-14T19:28:49.173Z,25.59
2022-12-14T19:31:15.761Z,25.65
2022-12-14T19:33:42.292Z,25.67
2022-12-14T19:36:09.489Z,25.63
2022-12-14T19:38:36.239Z,26.00
2022-12-14T19:41:06.442Z,25.68
2022-12-14T19:43:33.883Z,25.79
2022-12-14T19:46:01.190Z,25.69
2022-12-14T19:48:27.839Z,25.81
2022-12-14T19:50:54.470Z,25.68
2022-12-14T19:53:23.764Z,25.59
2022-12-14T19:55:52.655Z,25.72
2022-12-14T19:58:21.810Z,25.75
2022-12-14T20:00:49.658Z,25.79
2022-12-14T20:03:16.444Z,26.01
2022-12-14T20:05:56.247Z,26.02
2022-12-14T20:08:22.898Z,25.84
2022-12-14T20:10:49.530Z,25.82
2022-12-14T20:13:16.271Z,26.05
2022-12-14T20:15:50.843Z,26.17
2022-12-14T20:18:17.591Z,26.50
2022-12-14T20:20:44.148Z,27.05
2022-12-14T20:23:17.201Z,26.94
2022-12-14T20:25:43.667Z,26.54
2022-12-14T20:28:10.127Z,26.91
2022-12-14T20:30:42.543Z,26.92
2022-12-14T20:33:09.002Z,26.85
2022-12-14T20:35:35.463Z,27.28
2022-12-14T20:38:02.162Z,27.95
2022-12-14T20:40:30.431Z,27.77
2022-12-14T20:42:58.919Z,27.35
2022-12-14T20:45:25.451Z,27.11
2022-12-14T20:47:53.035Z,26.94
2022-12-14T20:50:20.028Z,26.86
2022-12-14T20:52:46.486Z,26.90
2022-12-14T20:55:15.830Z,26.86
2022-12-14T20:57:42.281Z,26.73
2022-12-14T21:00:12.179Z,26.62
2022-12-14T21:02:38.764Z,26.70
2022-12-14T21:05:05.776Z,27.10
2022-12-14T21:07:32.712Z,27.18
2022-12-14T21:09:59.178Z,26.78
2022-12-14T21:12:25.760Z,27.00
2022-12-14T21:14:53.688Z,26.68
2022-12-14T21:17:24.888Z,26.61
2022-12-14T21:19:51.766Z,26.78
2022-12-14T21:22:20.269Z,26.95
2022-12-14T21:25:04.901Z,26.72
2022-12-14T21:27:32.952Z,26.75
2022-12-14T21:30:00.339Z,26.16
2022-12-14T21:32:26.913Z,25.82
2022-12-14T21:34:53.378Z,25.92
2022-12-14T21:37:20.327Z,25.80
2022-12-14T21:39:52.331Z,25.83
2022-12-14T21:42:21.908Z,26.16
2022-12-14T21:44:49.459Z,26.19
2022-12-14T21:47:26.647Z,26.11
2022-12-14T21:49:53.120Z,25.87
2022-12-14T21:52:21.577Z,25.85
2022-12-14T21:54:48.031Z,26.02
2022-12-14T21:57:37.122Z,27.05
2022-12-14T22:00:07.011Z,26.93
2022-12-14T22:02:33.670Z,27.45
2022-12-14T22:05:00.317Z,27.24
2022-12-14T22:07:30.483Z,26.83
2022-12-14T22:09:56.937Z,26.56
2022-12-14T22:12:23.390Z,26.59
2022-12-14T22:14:49.962Z,26.68
2022-12-14T22:17:16.414Z,26.73
2022-12-14T22:19:42.884Z,26.62
2022-12-14T22:24:41.977Z,26.64
2022-12-14T22:27:10.155Z,26.61
2022-12-14T22:29:36.606Z,26.74
2022-12-14T22:32:03.101Z,26.88
2022-12-14T22:34:29.577Z,26.72
2022-12-14T22:39:22.292Z,26.83
2022-12-14T22:41:48.875Z,26.69
2022-12-14T22:44:15.560Z,27.00
2022-12-14T22:46:42.311Z,26.90
2022-12-14T22:49:08.891Z,26.76
2022-12-14T22:51:35.498Z,27.08
2022-12-14T22:54:02.432Z,27.04
2022-12-14T22:56:38.830Z,26.83
2022-12-14T22:59:11.584Z,27.10
2022-12-14T23:01:38.208Z,27.02
2022-12-14T23:04:05.656Z,27.34
2022-12-14T23:06:32.383Z,27.03
2022-12-14T23:09:17.344Z,26.99
2022-12-14T23:12:02.074Z,26.94
2022-12-14T23:14:46.863Z,27.05
2022-12-14T23:17:31.810Z,27.13
2022-12-14T23:20:16.926Z,27.22
2022-12-14T23:23:01.651Z,27.31
2022-12-14T23:25:46.506Z,26.97
2022-12-14T23:28:31.750Z,27.02
2022-12-14T23:31:17.674Z,27.11
2022-12-14T23:34:02.712Z,27.29
2022-12-14T23:36:47.516Z,26.94
2022-12-14T23:39:33.054Z,26.83
2022-12-14T23:42:17.765Z,26.63
2022-12-14T23:45:02.829Z,26.40
2022-12-14T23:47:49.354Z,26.49
2022-12-14T23:50:35.023Z,26.60
2022-12-14T23:53:24.565Z,26.52
2022-12-14T23:56:09.163Z,26.29
2022-12-14T23:58:53.920Z,26.23
